Time,TemperatureF,DewpointF,PressureIn,WindDirection,WindDirectionDegrees,WindSpeedMPH,WindSpeedGustMPH,Humidity,HourlyPrecipIn,Conditions,Clouds,dailyrainin,SoftwareType,DateUTC
2013-01-02 00:00:00,33.7,4.8,30.26,East,80,0.0,0.0,29,0.00,,,0.00,Wunderground v.1.15,2013-01-02 08:00:00,
2013-01-02 00:05:00,33.5,5.3,30.26,East,80,0.0,0.0,30,0.00,,,0.00,Wunderground v.1.15,2013-01-02 08:05:00,
2013-01-02 00:15:00,33.1,5.0,30.25,East,80,0.0,0.0,30,0.00,,,0.00,Wunderground v.1.15,2013-01-02 08:15:00,
2013-01-02 00:20:00,33.1,5.0,30.25,East,80,0.0,0.0,30,0.00,,,0.00,Wunderground v.1.15,2013-01-02 08:20:00,
2013-01-02 00:25:00,34.0,5.0,30.25,East,80,0.0,0.0,29,0.00,,,0.00,Wunderground v.1.15,2013-01-02 08:25:00,
2013-01-02 00:35:00,37.0,6.1,30.25,East,80,0.0,0.0,27,0.00,,,0.00,Wunderground v.1.15,2013-01-02 08:35:00,
2013-01-02 00:40:00,37.0,5.2,30.25,East,80,0.0,0.0,26,0.00,,,0.00,Wunderground v.1.15,2013-01-02 08:40:00,
2013-01-02 00:50:00,37.0,6.1,30.25,East,80,0.0,0.0,27,0.00,,,0.00,Wunderground v.1.15,2013-01-02 08:50:00,
2013-01-02 00:55:00,36.9,6.0,30.25,East,80,0.0,0.0,27,0.00,,,0.00,Wunderground v.1.15,2013-01-02 08:55:00,
2013-01-02 01:05:00,36.6,5.7,30.25,East,80,0.0,0.0,27,0.00,,,0.00,Wunderground v.1.15,2013-01-02 09:05:00,
2013-01-02 01:15:00,36.3,5.5,30.25,South,174,0.0,0.0,27,0.00,,,0.00,Wunderground v.1.15,2013-01-02 09:15:00,
2013-01-02 01:25:00,36.3,5.5,30.25,South,174,0.0,0.0,27,0.00,,,0.00,Wunderground v.1.15,2013-01-02 09:25:00,
2013-01-02 01:30:00,36.3,5.5,30.25,South,174,0.0,0.0,27,0.00,,,0.00,Wunderground v.1.15,2013-01-02 09:30:00,
2013-01-02 01:40:00,36.6,5.7,30.25,South,174,0.0,0.0,27,0.00,,,0.00,Wunderground v.1.15,2013-01-02 09:40:00,
2013-01-02 01:45:00,35.9,5.9,30.26,South,174,0.0,0.0,28,0.00,,,0.00,Wunderground v.1.15,2013-01-02 09:45:00,
2013-01-02 01:55:00,34.6,4.8,30.26,South,174,0.0,0.0,28,0.00,,,0.00,Wunderground v.1.15,2013-01-02 09:55:00,
2013-01-02 02:00:00,34.1,5.1,30.26,South,174,0.0,0.0,29,0.00,,,0.00,Wunderground v.1.15,2013-01-02 10:00:00,
2013-01-02 02:05:00,33.7,4.8,30.26,South,174,0.0,0.0,29,0.00,,,0.00,Wunderground v.1.15,2013-01-02 10:05:00,
2013-01-02 02:15:00,32.9,4.1,30.26,South,174,0.0,0.0,29,0.00,,,0.00,Wunderground v.1.15,2013-01-02 10:15:00,
2013-01-02 02:20:00,32.7,5.3,30.26,South,173,0.0,0.0,31,0.00,,,0.00,Wunderground v.1.15,2013-01-02 10:20:00,
2013-01-02 02:30:00,32.5,4.4,30.25,South,173,0.0,0.0,30,0.00,,,0.00,Wunderground v.1.15,2013-01-02 10:30:00,
2013-01-02 02:35:00,32.7,4.6,30.25,South,173,0.0,0.0,30,0.00,,,0.00,Wunderground v.1.15,2013-01-02 10:35:00,
2013-01-02 02:45:00,32.2,5.6,30.26,South,173,0.0,0.0,32,0.00,,,0.00,Wunderground v.1.15,2013-01-02 10:45:00,
2013-01-02 02:55:00,32.4,4.4,30.26,South,173,0.0,0.0,30,0.00,,,0.00,Wunderground v.1.15,2013-01-02 10:55:00,
2013-01-02 03:00:00,32.7,3.9,30.25,South,173,0.0,0.0,29,0.00,,,0.00,Wunderground v.1.15,2013-01-02 11:00:00,
2013-01-02 03:05:00,32.8,4.7,30.25,South,191,0.0,0.0,30,0.00,,,0.00,Wunderground v.1.15,2013-01-02 11:05:00,
2013-01-02 03:15:00,33.4,6.0,30.25,South,190,0.0,0.0,31,0.00,,,0.00,Wunderground v.1.15,2013-01-02 11:15:00,
2013-01-02 03:20:00,33.1,5.7,30.25,South,190,0.0,0.0,31,0.00,,,0.00,Wunderground v.1.15,2013-01-02 11:20:00,
2013-01-02 03:30:00,32.5,5.9,30.25,South,190,0.0,0.0,32,0.00,,,0.00,Wunderground v.1.15,2013-01-02 11:30:00,
2013-01-02 03:35:00,32.4,5.8,30.25,South,190,0.0,0.0,32,0.00,,,0.00,Wunderground v.1.15,2013-01-02 11:35:00,
2013-01-02 03:45:00,32.7,5.3,30.24,South,190,0.0,0.0,31,0.00,,,0.00,Wunderground v.1.15,2013-01-02 11:45:00,
2013-01-02 03:50:00,32.7,6.0,30.24,South,190,0.0,0.0,32,0.00,,,0.00,Wunderground v.1.15,2013-01-02 11:50:00,
2013-01-02 04:00:00,32.4,5.8,30.24,South,190,0.0,0.0,32,0.00,,,0.00,Wunderground v.1.15,2013-01-02 12:00:00,
2013-01-02 04:05:00,32.5,5.9,30.24,South,190,0.0,0.0,32,0.00,,,0.00,Wunderground v.1.15,2013-01-02 12:05:00,
2013-01-02 04:15:00,32.9,5.5,30.24,South,190,0.0,0.0,31,0.00,,,0.00,Wunderground v.1.15,2013-01-02 12:15:00,
2013-01-02 04:20:00,33.2,5.1,30.24,South,190,0.0,0.0,30,0.00,,,0.00,Wunderground v.1.15,2013-01-02 12:20:00,
2013-01-02 04:25:00,32.9,4.8,30.24,South,190,0.0,0.0,30,0.00,,,0.00,Wunderground v.1.15,2013-01-02 12:25:00,
2013-01-02 04:35:00,32.4,5.1,30.23,South,190,0.0,0.0,31,0.00,,,0.00,Wunderground v.1.15,2013-01-02 12:35:00,
2013-01-02 04:45:00,31.9,5.3,30.23,South,190,0.0,0.0,32,0.00,,,0.00,Wunderground v.1.15,2013-01-02 12:45:00,
2013-01-02 04:50:00,31.9,5.3,30.23,South,190,0.0,0.0,32,0.00,,,0.00,Wunderground v.1.15,2013-01-02 12:50:00,
2013-01-02 05:00:00,30.3,5.2,30.23,SW,223,0.0,0.0,34,0.00,,,0.00,Wunderground v.1.15,2013-01-02 13:00:00,
2013-01-02 05:05:00,30.7,4.9,30.23,SW,222,0.0,0.0,33,0.00,,,0.00,Wunderground v.1.15,2013-01-02 13:05:00,
2013-01-02 05:15:00,31.2,5.4,30.23,SW,222,0.0,0.0,33,0.00,,,0.00,Wunderground v.1.15,2013-01-02 13:15:00,
2013-01-02 05:20:00,31.3,5.5,30.23,SW,222,0.0,0.0,33,0.00,,,0.00,Wunderground v.1.15,2013-01-02 13:20:00,
2013-01-02 05:30:00,31.3,5.5,30.23,SW,223,0.0,0.0,33,0.00,,,0.00,Wunderground v.1.15,2013-01-02 13:30:00,
2013-01-02 05:35:00,31.6,5.7,30.23,SW,222,0.0,0.0,33,0.00,,,0.00,Wunderground v.1.15,2013-01-02 13:35:00,
2013-01-02 05:45:00,31.5,6.3,30.23,SW,222,0.0,0.0,34,0.00,,,0.00,Wunderground v.1.15,2013-01-02 13:45:00,
2013-01-02 05:50:00,31.5,6.3,30.23,SW,222,0.0,0.0,34,0.00,,,0.00,Wunderground v.1.15,2013-01-02 13:50:00,
2013-01-02 06:00:00,31.0,5.2,30.23,SW,222,0.0,0.0,33,0.00,,,0.00,Wunderground v.1.15,2013-01-02 14:00:00,
2013-01-02 06:05:00,31.2,6.0,30.23,SW,222,0.0,0.0,34,0.00,,,0.00,Wunderground v.1.15,2013-01-02 14:05:00,
2013-01-02 06:15:00,30.7,5.6,30.22,SW,222,0.0,0.0,34,0.00,,,0.00,Wunderground v.1.15,2013-01-02 14:15:00,
2013-01-02 06:20:00,30.9,5.8,30.22,SW,222,0.0,0.0,34,0.00,,,0.00,Wunderground v.1.15,2013-01-02 14:20:00,
2013-01-02 06:25:00,30.9,5.8,30.22,SW,222,0.0,0.0,34,0.00,,,0.00,Wunderground v.1.15,2013-01-02 14:25:00,
2013-01-02 06:35:00,30.1,5.1,30.23,SW,222,0.0,0.0,34,0.00,,,0.00,Wunderground v.1.15,2013-01-02 14:35:00,
2013-01-02 06:40:00,29.8,5.4,30.23,SW,222,0.0,0.0,35,0.00,,,0.00,Wunderground v.1.15,2013-01-02 14:40:00,
2013-01-02 06:50:00,29.8,6.1,30.23,SW,222,0.0,0.0,36,0.00,,,0.00,Wunderground v.1.15,2013-01-02 14:50:00,
2013-01-02 06:55:00,30.1,5.7,30.23,SW,222,0.0,0.0,35,0.00,,,0.00,Wunderground v.1.15,2013-01-02 14:55:00,
2013-01-02 07:05:00,30.6,6.1,30.23,SW,222,0.0,0.0,35,0.00,,,0.00,Wunderground v.1.15,2013-01-02 15:05:00,
2013-01-02 07:15:00,30.1,6.3,30.22,SW,222,0.0,0.0,36,0.00,,,0.00,Wunderground v.1.15,2013-01-02 15:15:00,
2013-01-02 07:25:00,29.3,5.6,30.22,SW,225,0.0,0.0,36,0.00,,,0.00,Wunderground v.1.15,2013-01-02 15:25:00,
2013-01-02 07:30:00,29.3,6.2,30.23,South,186,0.0,0.0,37,0.00,,,0.00,Wunderground v.1.15,2013-01-02 15:30:00,
2013-01-02 07:40:00,29.5,5.8,30.23,South,186,0.0,0.0,36,0.00,,,0.00,Wunderground v.1.15,2013-01-02 15:40:00,
2013-01-02 07:45:00,29.7,6.6,30.23,South,186,0.0,0.0,37,0.00,,,0.00,Wunderground v.1.15,2013-01-02 15:45:00,
2013-01-02 07:55:00,30.3,6.5,30.23,South,186,0.0,0.0,36,0.00,,,0.00,Wunderground v.1.15,2013-01-02 15:55:00,
2013-01-02 08:00:00,30.7,6.9,30.24,South,186,0.0,0.0,36,0.00,,,0.00,Wunderground v.1.15,2013-01-02 16:00:00,
2013-01-02 08:05:00,31.5,6.3,30.24,South,186,0.0,0.0,34,0.00,,,0.00,Wunderground v.1.15,2013-01-02 16:05:00,
2013-01-02 08:15:00,32.8,8.1,30.23,South,186,0.0,0.0,35,0.00,,,0.00,Wunderground v.1.15,2013-01-02 16:15:00,
2013-01-02 08:20:00,33.2,7.2,30.23,South,186,0.0,0.0,33,0.00,,,0.00,Wunderground v.1.15,2013-01-02 16:20:00,
2013-01-02 08:30:00,35.2,6.8,30.24,South,186,0.0,0.0,30,0.00,,,0.00,Wunderground v.1.15,2013-01-02 16:30:00,
2013-01-02 08:35:00,35.8,6.6,30.24,South,186,0.0,0.0,29,0.00,,,0.00,Wunderground v.1.15,2013-01-02 16:35:00,
2013-01-02 08:45:00,37.6,7.4,30.24,South,187,0.0,0.0,28,0.00,,,0.00,Wunderground v.1.15,2013-01-02 16:45:00,
2013-01-02 08:50:00,38.0,7.7,30.24,South,188,0.0,0.0,28,0.00,,,0.00,Wunderground v.1.15,2013-01-02 16:50:00,
2013-01-02 09:00:00,38.0,6.9,30.24,South,188,0.0,0.0,27,0.00,,,0.00,Wunderground v.1.15,2013-01-02 17:00:00,
2013-01-02 09:05:00,38.2,7.1,30.24,South,188,0.0,0.0,27,0.00,,,0.00,Wunderground v.1.15,2013-01-02 17:05:00,
2013-01-02 09:15:00,38.6,7.4,30.24,South,188,0.0,0.0,27,0.00,,,0.00,Wunderground v.1.15,2013-01-02 17:15:00,
2013-01-02 09:20:00,39.1,7.0,30.24,South,188,0.0,0.0,26,0.00,,,0.00,Wunderground v.1.15,2013-01-02 17:20:00,
2013-01-02 09:25:00,39.8,8.5,30.24,SW,216,0.0,0.0,27,0.00,,,0.00,Wunderground v.1.15,2013-01-02 17:25:00,
2013-01-02 09:30:00,40.3,8.1,30.24,SW,216,0.0,0.0,26,0.00,,,0.00,Wunderground v.1.15,2013-01-02 17:30:00,
2013-01-02 09:40:00,41.3,8.1,30.24,SW,216,0.0,0.0,25,0.00,,,0.00,Wunderground v.1.15,2013-01-02 17:40:00,
2013-01-02 09:50:00,42.2,7.9,30.24,SW,216,0.0,0.0,24,0.00,,,0.00,Wunderground v.1.15,2013-01-02 17:50:00,
2013-01-02 09:55:00,42.6,8.3,30.24,SW,216,0.0,0.0,24,0.00,,,0.00,Wunderground v.1.15,2013-01-02 17:55:00,
2013-01-02 10:05:00,43.5,8.1,30.24,SW,216,0.0,0.0,23,0.00,,,0.00,Wunderground v.1.15,2013-01-02 18:05:00,
2013-01-02 10:15:00,44.6,9.0,30.24,SW,216,0.0,0.0,23,0.00,,,0.00,Wunderground v.1.15,2013-01-02 18:15:00,
2013-01-02 10:25:00,45.4,9.7,30.24,SW,216,0.0,0.0,23,0.00,,,0.00,Wunderground v.1.15,2013-01-02 18:25:00,
2013-01-02 10:30:00,45.4,8.7,30.24,SW,232,0.0,0.0,22,0.00,,,0.00,Wunderground v.1.15,2013-01-02 18:30:00,
2013-01-02 10:40:00,45.8,9.0,30.24,SW,236,0.0,0.0,22,0.00,,,0.00,Wunderground v.1.15,2013-01-02 18:40:00,
2013-01-02 10:50:00,46.2,8.3,30.22,WNW,284,0.0,0.0,21,0.00,,,0.00,Wunderground v.1.15,2013-01-02 18:50:00,
2013-01-02 10:55:00,46.7,9.8,30.22,WNW,284,0.0,0.0,22,0.00,,,0.00,Wunderground v.1.15,2013-01-02 18:55:00,
2013-01-02 11:05:00,47.6,9.5,30.21,NNW,332,0.0,0.0,21,0.00,,,0.00,Wunderground v.1.15,2013-01-02 19:05:00,
2013-01-02 11:15:00,48.3,9.0,30.20,East,92,0.0,0.0,20,0.00,,,0.00,Wunderground v.1.15,2013-01-02 19:15:00,
2013-01-02 11:25:00,49.2,8.6,30.20,ENE,75,0.0,1.0,19,0.00,,,0.00,Wunderground v.1.15,2013-01-02 19:25:00,
2013-01-02 11:30:00,49.4,8.8,30.19,East,83,1.0,1.0,19,0.00,,,0.00,Wunderground v.1.15,2013-01-02 19:30:00,
2013-01-02 11:40:00,50.2,8.2,30.19,ENE,63,1.0,3.0,18,0.00,,,0.00,Wunderground v.1.15,2013-01-02 19:40:00,
2013-01-02 11:50:00,50.2,8.2,30.18,East,80,2.0,2.0,18,0.00,,,0.00,Wunderground v.1.15,2013-01-02 19:50:00,
2013-01-02 11:55:00,50.4,8.4,30.18,ENE,59,2.0,2.0,18,0.00,,,0.00,Wunderground v.1.15,2013-01-02 19:55:00,
2013-01-02 12:05:00,50.7,7.4,30.17,East,88,1.0,1.0,17,0.00,,,0.00,Wunderground v.1.15,2013-01-02 20:05:00,
2013-01-02 12:15:00,50.7,7.4,30.16,East,82,2.0,4.0,17,0.00,,,0.00,Wunderground v.1.15,2013-01-02 20:15:00,
2013-01-02 12:25:00,51.3,9.2,30.16,East,89,2.0,2.0,18,0.00,,,0.00,Wunderground v.1.15,2013-01-02 20:25:00,
2013-01-02 12:30:00,51.1,7.7,30.15,East,82,2.0,5.0,17,0.00,,,0.00,Wunderground v.1.15,2013-01-02 20:30:00,
2013-01-02 12:40:00,51.6,8.1,30.15,NE,49,2.0,2.0,17,0.00,,,0.00,Wunderground v.1.15,2013-01-02 20:40:00,
2013-01-02 12:50:00,51.7,8.2,30.14,NE,51,2.0,3.0,17,0.00,,,0.00,Wunderground v.1.15,2013-01-02 20:50:00,
2013-01-02 12:55:00,51.9,8.4,30.14,East,90,2.0,3.0,17,0.00,,,0.00,Wunderground v.1.15,2013-01-02 20:55:00,
2013-01-02 13:05:00,52.0,8.5,30.13,ENE,74,2.0,5.0,17,0.00,,,0.00,Wunderground v.1.15,2013-01-02 21:05:00,
2013-01-02 13:15:00,52.5,8.9,30.13,East,81,1.0,3.0,17,0.00,,,0.00,Wunderground v.1.15,2013-01-02 21:15:00,
2013-01-02 13:25:00,52.9,7.8,30.13,ENE,73,1.0,1.0,16,0.00,,,0.00,Wunderground v.1.15,2013-01-02 21:25:00,
2013-01-02 13:30:00,53.1,8.0,30.12,ENE,67,2.0,2.0,16,0.00,,,0.00,Wunderground v.1.15,2013-01-02 21:30:00,
2013-01-02 13:40:00,53.5,8.3,30.12,ENE,73,1.0,2.0,16,0.00,,,0.00,Wunderground v.1.15,2013-01-02 21:40:00,
2013-01-02 13:45:00,53.6,8.4,30.12,East,87,1.0,2.0,16,0.00,,,0.00,Wunderground v.1.15,2013-01-02 21:45:00,
2013-01-02 13:55:00,54.1,10.2,30.12,ENE,71,1.0,1.0,17,0.00,,,0.00,Wunderground v.1.15,2013-01-02 21:55:00,
2013-01-02 14:05:00,53.8,8.6,30.12,NE,56,1.0,1.0,16,0.00,,,0.00,Wunderground v.1.15,2013-01-02 22:05:00,
2013-01-02 14:15:00,54.2,8.9,30.12,North,360,0.0,4.0,16,0.00,,,0.00,Wunderground v.1.15,2013-01-02 22:15:00,
2013-01-02 14:25:00,54.5,9.1,30.12,NNE,13,0.0,0.0,16,0.00,,,0.00,Wunderground v.1.15,2013-01-02 22:25:00,
2013-01-02 14:30:00,54.4,9.1,30.12,North,351,0.0,0.0,16,0.00,,,0.00,Wunderground v.1.15,2013-01-02 22:30:00,
2013-01-02 14:40:00,54.4,9.1,30.12,ENE,72,0.0,0.0,16,0.00,,,0.00,Wunderground v.1.15,2013-01-02 22:40:00,
2013-01-02 14:50:00,54.7,9.3,30.12,ENE,62,0.0,1.0,16,0.00,,,0.00,Wunderground v.1.15,2013-01-02 22:50:00,
2013-01-02 14:55:00,54.5,9.1,30.12,NE,53,0.0,1.0,16,0.00,,,0.00,Wunderground v.1.15,2013-01-02 22:55:00,
2013-01-02 15:00:00,54.4,9.1,30.12,ENE,65,0.0,0.0,16,0.00,,,0.00,Wunderground v.1.15,2013-01-02 23:00:00,
2013-01-02 15:05:00,54.5,9.1,30.12,ENE,63,0.0,0.0,16,0.00,,,0.00,Wunderground v.1.15,2013-01-02 23:05:00,
2013-01-02 15:15:00,54.2,8.9,30.12,ENE,65,1.0,2.0,16,0.00,,,0.00,Wunderground v.1.15,2013-01-02 23:15:00,
2013-01-02 15:20:00,54.2,8.9,30.12,ENE,78,1.0,1.0,16,0.00,,,0.00,Wunderground v.1.15,2013-01-02 23:20:00,
2013-01-02 15:30:00,53.9,8.7,30.11,ENE,65,1.0,1.0,16,0.00,,,0.00,Wunderground v.1.15,2013-01-02 23:30:00,
2013-01-02 15:40:00,53.6,8.4,30.11,ENE,60,1.0,1.0,16,0.00,,,0.00,Wunderground v.1.15,2013-01-02 23:40:00,
2013-01-02 15:45:00,53.5,8.3,30.12,ENE,57,1.0,1.0,16,0.00,,,0.00,Wunderground v.1.15,2013-01-02 23:45:00,
2013-01-02 15:55:00,53.2,8.1,30.12,NE,55,1.0,1.0,16,0.00,,,0.00,Wunderground v.1.15,2013-01-02 23:55:00,
2013-01-02 16:05:00,52.8,9.1,30.12,ENE,72,1.0,1.0,17,0.00,,,0.00,Wunderground v.1.15,2013-01-03 00:05:00,
2013-01-02 16:15:00,52.3,8.7,30.12,ENE,76,0.0,0.0,17,0.00,,,0.00,Wunderground v.1.15,2013-01-03 00:15:00,
2013-01-02 16:20:00,52.2,8.6,30.12,ENE,76,0.0,0.0,17,0.00,,,0.00,Wunderground v.1.15,2013-01-03 00:20:00,
2013-01-02 16:30:00,51.6,9.4,30.12,ENE,76,0.0,0.0,18,0.00,,,0.00,Wunderground v.1.15,2013-01-03 00:30:00,
2013-01-02 16:35:00,51.1,9.0,30.12,ENE,76,0.0,0.0,18,0.00,,,0.00,Wunderground v.1.15,2013-01-03 00:35:00,
2013-01-02 16:45:00,49.9,9.2,30.13,ENE,76,0.0,0.0,19,0.00,,,0.00,Wunderground v.1.15,2013-01-03 00:45:00,
2013-01-02 16:50:00,49.4,9.9,30.13,ENE,76,0.0,0.0,20,0.00,,,0.00,Wunderground v.1.15,2013-01-03 00:50:00,
2013-01-02 16:55:00,48.6,9.3,30.13,ENE,76,0.0,0.0,20,0.00,,,0.00,Wunderground v.1.15,2013-01-03 00:55:00,
2013-01-02 17:05:00,47.3,8.2,30.13,ENE,76,0.0,0.0,20,0.00,,,0.00,Wunderground v.1.15,2013-01-03 01:05:00,
2013-01-02 17:15:00,45.7,7.9,30.13,ENE,76,0.0,0.0,21,0.00,,,0.00,Wunderground v.1.15,2013-01-03 01:15:00,
2013-01-02 17:25:00,44.6,8.0,30.13,ENE,76,0.0,0.0,22,0.00,,,0.00,Wunderground v.1.15,2013-01-03 01:25:00,
2013-01-02 17:35:00,43.9,7.4,30.13,ENE,76,0.0,0.0,22,0.00,,,0.00,Wunderground v.1.15,2013-01-03 01:35:00,
2013-01-02 17:40:00,43.8,7.4,30.13,ENE,76,0.0,0.0,22,0.00,,,0.00,Wunderground v.1.15,2013-01-03 01:40:00,
2013-01-02 17:50:00,43.3,6.9,30.13,ENE,76,0.0,0.0,22,0.00,,,0.00,Wunderground v.1.15,2013-01-03 01:50:00,
2013-01-02 17:55:00,43.2,7.8,30.13,ENE,76,0.0,0.0,23,0.00,,,0.00,Wunderground v.1.15,2013-01-03 01:55:00,
2013-01-02 18:05:00,42.8,7.5,30.13,ENE,76,0.0,0.0,23,0.00,,,0.00,Wunderground v.1.15,2013-01-03 02:05:00,
2013-01-02 18:15:00,42.3,7.1,30.13,ENE,76,0.0,0.0,23,0.00,,,0.00,Wunderground v.1.15,2013-01-03 02:15:00,
2013-01-02 18:25:00,42.2,7.0,30.13,ENE,76,0.0,0.0,23,0.00,,,0.00,Wunderground v.1.15,2013-01-03 02:25:00,
2013-01-02 18:30:00,41.9,7.7,30.13,ENE,76,0.0,0.0,24,0.00,,,0.00,Wunderground v.1.15,2013-01-03 02:30:00,
2013-01-02 18:40:00,41.8,7.6,30.13,ENE,76,0.0,0.0,24,0.00,,,0.00,Wunderground v.1.15,2013-01-03 02:40:00,
2013-01-02 18:45:00,41.5,7.3,30.13,ENE,76,0.0,0.0,24,0.00,,,0.00,Wunderground v.1.15,2013-01-03 02:45:00,
2013-01-02 18:55:00,40.8,6.7,30.13,ENE,76,0.0,0.0,24,0.00,,,0.00,Wunderground v.1.15,2013-01-03 02:55:00,
2013-01-02 19:00:00,40.6,6.6,30.13,ENE,76,0.0,0.0,24,0.00,,,0.00,Wunderground v.1.15,2013-01-03 03:00:00,
2013-01-02 19:05:00,39.5,6.5,30.13,ENE,76,0.0,0.0,25,0.00,,,0.00,Wunderground v.1.15,2013-01-03 03:05:00,
2013-01-02 19:15:00,39.1,7.0,30.13,ENE,76,0.0,0.0,26,0.00,,,0.00,Wunderground v.1.15,2013-01-03 03:15:00,
2013-01-02 19:20:00,39.2,7.1,30.13,ENE,76,0.0,0.0,26,0.00,,,0.00,Wunderground v.1.15,2013-01-03 03:20:00,
2013-01-02 19:30:00,39.2,6.3,30.14,ENE,76,0.0,0.0,25,0.00,,,0.00,Wunderground v.1.15,2013-01-03 03:30:00,
2013-01-02 19:40:00,39.1,6.2,30.14,ENE,76,0.0,0.0,25,0.00,,,0.00,Wunderground v.1.15,2013-01-03 03:40:00,
2013-01-02 19:45:00,38.6,6.6,30.14,ENE,76,0.0,0.0,26,0.00,,,0.00,Wunderground v.1.15,2013-01-03 03:45:00,
2013-01-02 19:55:00,38.5,6.5,30.14,ENE,76,0.0,0.0,26,0.00,,,0.00,Wunderground v.1.15,2013-01-03 03:55:00,
2013-01-02 20:00:00,38.3,6.4,30.14,ENE,76,0.0,0.0,26,0.00,,,0.00,Wunderground v.1.15,2013-01-03 04:00:00,
2013-01-02 20:05:00,38.2,7.1,30.14,ENE,76,0.0,0.0,27,0.00,,,0.00,Wunderground v.1.15,2013-01-03 04:05:00,
2013-01-02 20:15:00,38.5,7.4,30.14,ENE,76,0.0,0.0,27,0.00,,,0.00,Wunderground v.1.15,2013-01-03 04:15:00,
2013-01-02 20:20:00,38.8,6.8,30.14,ENE,76,0.0,0.0,26,0.00,,,0.00,Wunderground v.1.15,2013-01-03 04:20:00,
2013-01-02 20:30:00,38.8,6.8,30.14,ENE,76,0.0,0.0,26,0.00,,,0.00,Wunderground v.1.15,2013-01-03 04:30:00,
2013-01-02 20:40:00,38.9,6.9,30.14,ENE,76,0.0,0.0,26,0.00,,,0.00,Wunderground v.1.15,2013-01-03 04:40:00,
2013-01-02 20:45:00,38.9,6.9,30.13,ENE,76,0.0,0.0,26,0.00,,,0.00,Wunderground v.1.15,2013-01-03 04:45:00,
2013-01-02 20:55:00,39.1,7.9,30.13,ENE,76,0.0,0.0,27,0.00,,,0.00,Wunderground v.1.15,2013-01-03 04:55:00,
2013-01-02 21:00:00,39.2,7.1,30.13,ENE,76,0.0,0.0,26,0.00,,,0.00,Wunderground v.1.15,2013-01-03 05:00:00,
2013-01-02 21:05:00,39.2,7.1,30.13,ENE,76,0.0,0.0,26,0.00,,,0.00,Wunderground v.1.15,2013-01-03 05:05:00,
2013-01-02 21:15:00,38.5,7.4,30.14,East,83,0.0,0.0,27,0.00,,,0.00,Wunderground v.1.15,2013-01-03 05:15:00,
2013-01-02 21:20:00,38.2,7.1,30.14,East,83,0.0,0.0,27,0.00,,,0.00,Wunderground v.1.15,2013-01-03 05:20:00,
2013-01-02 21:25:00,38.2,7.1,30.14,East,83,0.0,0.0,27,0.00,,,0.00,Wunderground v.1.15,2013-01-03 05:25:00,
2013-01-02 21:35:00,38.5,7.4,30.14,East,83,0.0,0.0,27,0.00,,,0.00,Wunderground v.1.15,2013-01-03 05:35:00,
2013-01-02 21:40:00,38.5,7.4,30.14,East,83,0.0,0.0,27,0.00,,,0.00,Wunderground v.1.15,2013-01-03 05:40:00,
2013-01-02 21:50:00,38.2,7.9,30.14,East,83,0.0,0.0,28,0.00,,,0.00,Wunderground v.1.15,2013-01-03 05:50:00,
2013-01-02 22:00:00,37.3,7.1,30.15,East,83,0.0,0.0,28,0.00,,,0.00,Wunderground v.1.15,2013-01-03 06:00:00,
2013-01-02 22:05:00,37.2,6.2,30.15,East,83,0.0,0.0,27,0.00,,,0.00,Wunderground v.1.15,2013-01-03 06:05:00,
2013-01-02 22:15:00,36.6,6.5,30.15,East,83,0.0,0.0,28,0.00,,,0.00,Wunderground v.1.15,2013-01-03 06:15:00,
2013-01-02 22:25:00,36.9,6.8,30.15,East,83,0.0,0.0,28,0.00,,,0.00,Wunderground v.1.15,2013-01-03 06:25:00,
2013-01-02 22:35:00,37.0,6.1,30.15,East,83,0.0,0.0,27,0.00,,,0.00,Wunderground v.1.15,2013-01-03 06:35:00,
2013-01-02 22:40:00,36.5,6.4,30.15,East,83,0.0,0.0,28,0.00,,,0.00,Wunderground v.1.15,2013-01-03 06:40:00,
2013-01-02 22:50:00,36.0,6.0,30.16,East,83,0.0,0.0,28,0.00,,,0.00,Wunderground v.1.15,2013-01-03 06:50:00,
2013-01-02 23:00:00,36.2,6.9,30.16,East,83,0.0,0.0,29,0.00,,,0.00,Wunderground v.1.15,2013-01-03 07:00:00,
2013-01-02 23:05:00,36.3,7.0,30.16,East,83,0.0,0.0,29,0.00,,,0.00,Wunderground v.1.15,2013-01-03 07:05:00,
2013-01-02 23:15:00,36.5,7.2,30.15,East,83,0.0,0.0,29,0.00,,,0.00,Wunderground v.1.15,2013-01-03 07:15:00,
2013-01-02 23:25:00,36.2,6.9,30.15,East,83,0.0,0.0,29,0.00,,,0.00,Wunderground v.1.15,2013-01-03 07:25:00,
2013-01-02 23:35:00,34.9,5.8,30.16,ENE,78,0.0,0.0,29,0.00,,,0.00,Wunderground v.1.15,2013-01-03 07:35:00,
2013-01-02 23:45:00,34.6,7.0,30.15,ENE,78,0.0,0.0,31,0.00,,,0.00,Wunderground v.1.15,2013-01-03 07:45:00,
2013-01-02 23:50:00,34.6,7.0,30.15,ENE,78,0.0,0.0,31,0.00,,,0.00,Wunderground v.1.15,2013-01-03 07:50:00,